sensor_id;sensor_type;location;lat;lon;timestamp;temperature;humidity
10390;DHT22;5241;47.830;12.972;2023-04-03T00:01:07;3.50;99.90
10390;DHT22;5241;47.830;12.972;2023-04-03T00:03:33;3.50;99.90
10390;DHT22;5241;47.830;12.972;2023-04-03T00:05:59;3.50;99.90
10390;DHT22;5241;47.830;12.972;2023-04-03T00:08:25;3.50;99.90
10390;DHT22;5241;47.830;12.972;2023-04-03T00:10:51;3.50;99.90
10390;DHT22;5241;47.830;12.972;2023-04-03T00:13:16;3.50;99.90
10390;DHT22;5241;47.830;12.972;2023-04-03T00:15:42;3.50;99.90
10390;DHT22;5241;47.830;12.972;2023-04-03T00:18:08;3.50;99.90
10390;DHT22;5241;47.830;12.972;2023-04-03T00:20:34;3.50;99.90
10390;DHT22;5241;47.830;12.972;2023-04-03T00:23:01;3.40;99.90
10390;DHT22;5241;47.830;12.972;2023-04-03T00:25:27;3.40;99.90
10390;DHT22;5241;47.830;12.972;2023-04-03T00:27:52;3.40;99.90
10390;DHT22;5241;47.830;12.972;2023-04-03T00:30:20;3.40;99.90
10390;DHT22;5241;47.830;12.972;2023-04-03T00:32:48;3.40;99.90
10390;DHT22;5241;47.830;12.972;2023-04-03T00:35:13;3.40;99.90
10390;DHT22;5241;47.830;12.972;2023-04-03T00:37:42;3.40;99.90
10390;DHT22;5241;47.830;12.972;2023-04-03T00:40:08;3.40;99.90
10390;DHT22;5241;47.830;12.972;2023-04-03T00:42:34;3.40;99.90
10390;DHT22;5241;47.830;12.972;2023-04-03T00:47:27;3.40;99.90
10390;DHT22;5241;47.830;12.972;2023-04-03T00:49:53;3.40;99.90
10390;DHT22;5241;47.830;12.972;2023-04-03T00:52:22;3.40;99.90
10390;DHT22;5241;47.830;12.972;2023-04-03T00:54:49;3.40;99.90
10390;DHT22;5241;47.830;12.972;2023-04-03T00:57:16;3.40;99.90
10390;DHT22;5241;47.830;12.972;2023-04-03T00:59:46;3.40;99.90
10390;DHT22;5241;47.830;12.972;2023-04-03T01:02:14;3.40;99.90
10390;DHT22;5241;47.830;12.972;2023-04-03T01:04:42;3.40;99.90
10390;DHT22;5241;47.830;12.972;2023-04-03T01:07:12;3.40;99.90
10390;DHT22;5241;47.830;12.972;2023-04-03T01:09:40;3.40;99.90
10390;DHT22;5241;47.830;12.972;2023-04-03T01:12:25;3.30;99.90
10390;DHT22;5241;47.830;12.972;2023-04-03T01:14:54;3.40;99.90
10390;DHT22;5241;47.830;12.972;2023-04-03T01:17:36;3.40;99.90
10390;DHT22;5241;47.830;12.972;2023-04-03T01:20:34;3.40;99.90
10390;DHT22;5241;47.830;12.972;2023-04-03T01:23:20;3.40;99.90
10390;DHT22;5241;47.830;12.972;2023-04-03T01:25:53;3.40;99.90
10390;DHT22;5241;47.830;12.972;2023-04-03T01:28:26;3.40;99.90
10390;DHT22;5241;47.830;12.972;2023-04-03T01:31:02;3.40;99.90
10390;DHT22;5241;47.830;12.972;2023-04-03T01:33:30;3.40;99.90
10390;DHT22;5241;47.830;12.972;2023-04-03T01:35:56;3.30;99.90
10390;DHT22;5241;47.830;12.972;2023-04-03T01:38:22;3.30;99.90
10390;DHT22;5241;47.830;12.972;2023-04-03T01:40:47;3.30;99.90
10390;DHT22;5241;47.830;12.972;2023-04-03T01:43:13;3.30;99.90
10390;DHT22;5241;47.830;12.972;2023-04-03T01:45:38;3.30;99.90
10390;DHT22;5241;47.830;12.972;2023-04-03T01:48:04;3.30;99.90
10390;DHT22;5241;47.830;12.972;2023-04-03T01:50:30;3.30;99.90
10390;DHT22;5241;47.830;12.972;2023-04-03T01:52:56;3.30;99.90
10390;DHT22;5241;47.830;12.972;2023-04-03T01:55:22;3.30;99.90
10390;DHT22;5241;47.830;12.972;2023-04-03T01:57:47;3.30;99.90
10390;DHT22;5241;47.830;12.972;2023-04-03T02:00:13;3.30;99.90
10390;DHT22;5241;47.830;12.972;2023-04-03T02:02:39;3.30;99.90
10390;DHT22;5241;47.830;12.972;2023-04-03T02:05:05;3.30;99.90
10390;DHT22;5241;47.830;12.972;2023-04-03T02:07:31;3.30;99.90
10390;DHT22;5241;47.830;12.972;2023-04-03T02:09:56;3.30;99.90
10390;DHT22;5241;47.830;12.972;2023-04-03T02:12:22;3.30;99.90
10390;DHT22;5241;47.830;12.972;2023-04-03T02:14:47;3.30;99.90
10390;DHT22;5241;47.830;12.972;2023-04-03T02:17:13;3.30;99.90
10390;DHT22;5241;47.830;12.972;2023-04-03T02:19:38;3.30;99.90
10390;DHT22;5241;47.830;12.972;2023-04-03T02:22:04;3.30;99.90
10390;DHT22;5241;47.830;12.972;2023-04-03T02:24:30;3.30;99.90
10390;DHT22;5241;47.830;12.972;2023-04-03T02:26:56;3.30;99.90
10390;DHT22;5241;47.830;12.972;2023-04-03T02:29:21;3.30;99.90
10390;DHT22;5241;47.830;12.972;2023-04-03T02:31:47;3.30;99.90
10390;DHT22;5241;47.830;12.972;2023-04-03T02:34:13;3.30;99.90
10390;DHT22;5241;47.830;12.972;2023-04-03T02:36:38;3.30;99.90
10390;DHT22;5241;47.830;12.972;2023-04-03T02:39:04;3.30;99.90
10390;DHT22;5241;47.830;12.972;2023-04-03T02:41:30;3.30;99.90
10390;DHT22;5241;47.830;12.972;2023-04-03T02:44:01;3.30;99.90
10390;DHT22;5241;47.830;12.972;2023-04-03T02:46:27;3.30;99.90
10390;DHT22;5241;47.830;12.972;2023-04-03T02:48:52;3.30;99.90
10390;DHT22;5241;47.830;12.972;2023-04-03T02:51:18;3.30;99.90
10390;DHT22;5241;47.830;12.972;2023-04-03T02:53:44;3.30;99.90
10390;DHT22;5241;47.830;12.972;2023-04-03T02:56:09;3.30;99.90
10390;DHT22;5241;47.830;12.972;2023-04-03T02:58:35;3.30;99.90
10390;DHT22;5241;47.830;12.972;2023-04-03T03:01:01;3.30;99.90
10390;DHT22;5241;47.830;12.972;2023-04-03T03:03:27;3.30;99.90
10390;DHT22;5241;47.830;12.972;2023-04-03T03:08:28;3.30;99.90
10390;DHT22;5241;47.830;12.972;2023-04-03T03:10:53;3.30;99.90
10390;DHT22;5241;47.830;12.972;2023-04-03T03:13:19;3.30;99.90
10390;DHT22;5241;47.830;12.972;2023-04-03T03:15:44;3.30;99.90
10390;DHT22;5241;47.830;12.972;2023-04-03T03:18:10;3.30;99.90
10390;DHT22;5241;47.830;12.972;2023-04-03T03:20:35;3.30;99.90
10390;DHT22;5241;47.830;12.972;2023-04-03T03:23:01;3.30;99.90
10390;DHT22;5241;47.830;12.972;2023-04-03T03:25:26;3.20;99.90
10390;DHT22;5241;47.830;12.972;2023-04-03T03:27:52;3.30;99.90
10390;DHT22;5241;47.830;12.972;2023-04-03T03:30:17;3.20;99.90
10390;DHT22;5241;47.830;12.972;2023-04-03T03:32:43;3.20;99.90
10390;DHT22;5241;47.830;12.972;2023-04-03T03:35:08;3.30;99.90
10390;DHT22;5241;47.830;12.972;2023-04-03T03:37:34;3.30;99.90
10390;DHT22;5241;47.830;12.972;2023-04-03T03:40:00;3.20;99.90
10390;DHT22;5241;47.830;12.972;2023-04-03T03:42:25;3.30;99.90
10390;DHT22;5241;47.830;12.972;2023-04-03T03:44:51;3.20;99.90
10390;DHT22;5241;47.830;12.972;2023-04-03T03:47:17;3.20;99.90
10390;DHT22;5241;47.830;12.972;2023-04-03T03:49:42;3.20;99.90
10390;DHT22;5241;47.830;12.972;2023-04-03T03:52:08;3.20;99.90
10390;DHT22;5241;47.830;12.972;2023-04-03T03:54:36;3.20;99.90
10390;DHT22;5241;47.830;12.972;2023-04-03T03:57:02;3.20;99.90
10390;DHT22;5241;47.830;12.972;2023-04-03T03:59:28;3.20;99.90
10390;DHT22;5241;47.830;12.972;2023-04-03T04:01:53;3.20;99.90
10390;DHT22;5241;47.830;12.972;2023-04-03T04:04:19;3.20;99.90
10390;DHT22;5241;47.830;12.972;2023-04-03T04:06:45;3.20;99.90
10390;DHT22;5241;47.830;12.972;2023-04-03T04:09:11;3.20;99.90
10390;DHT22;5241;47.830;12.972;2023-04-03T04:11:36;3.20;99.90
10390;DHT22;5241;47.830;12.972;2023-04-03T04:14:02;3.20;99.90
10390;DHT22;5241;47.830;12.972;2023-04-03T04:16:27;3.20;99.90
10390;DHT22;5241;47.830;12.972;2023-04-03T04:18:53;3.20;99.90
10390;DHT22;5241;47.830;12.972;2023-04-03T04:21:18;3.10;99.90
10390;DHT22;5241;47.830;12.972;2023-04-03T04:23:44;3.20;99.90
10390;DHT22;5241;47.830;12.972;2023-04-03T04:26:10;3.10;99.90
10390;DHT22;5241;47.830;12.972;2023-04-03T04:28:35;3.20;99.90
10390;DHT22;5241;47.830;12.972;2023-04-03T04:31:01;3.20;99.90
10390;DHT22;5241;47.830;12.972;2023-04-03T04:33:26;3.20;99.90
10390;DHT22;5241;47.830;12.972;2023-04-03T04:35:52;3.20;99.90
10390;DHT22;5241;47.830;12.972;2023-04-03T04:38:18;3.20;99.90
10390;DHT22;5241;47.830;12.972;2023-04-03T04:40:43;3.10;99.90
10390;DHT22;5241;47.830;12.972;2023-04-03T04:43:09;3.10;99.90
10390;DHT22;5241;47.830;12.972;2023-04-03T04:45:36;3.10;99.90
10390;DHT22;5241;47.830;12.972;2023-04-03T04:48:01;3.10;99.90
10390;DHT22;5241;47.830;12.972;2023-04-03T04:50:27;3.10;99.90
10390;DHT22;5241;47.830;12.972;2023-04-03T04:52:52;3.00;99.90
10390;DHT22;5241;47.830;12.972;2023-04-03T04:55:18;3.00;99.90
10390;DHT22;5241;47.830;12.972;2023-04-03T04:57:43;3.10;99.90
10390;DHT22;5241;47.830;12.972;2023-04-03T05:00:09;3.10;99.90
10390;DHT22;5241;47.830;12.972;2023-04-03T05:02:35;3.10;99.90
10390;DHT22;5241;47.830;12.972;2023-04-03T05:05:00;3.00;99.90
10390;DHT22;5241;47.830;12.972;2023-04-03T05:07:26;3.00;99.90
10390;DHT22;5241;47.830;12.972;2023-04-03T05:09:51;3.00;99.90
10390;DHT22;5241;47.830;12.972;2023-04-03T05:12:17;3.10;99.90
10390;DHT22;5241;47.830;12.972;2023-04-03T05:14:43;3.10;99.90
10390;DHT22;5241;47.830;12.972;2023-04-03T05:17:08;3.00;99.90
10390;DHT22;5241;47.830;12.972;2023-04-03T05:19:34;3.00;99.90
10390;DHT22;5241;47.830;12.972;2023-04-03T05:21:59;3.00;99.90
10390;DHT22;5241;47.830;12.972;2023-04-03T05:24:25;3.10;99.90
10390;DHT22;5241;47.830;12.972;2023-04-03T05:26:51;3.10;99.90
10390;DHT22;5241;47.830;12.972;2023-04-03T05:29:17;3.00;99.90
10390;DHT22;5241;47.830;12.972;2023-04-03T05:31:42;3.10;99.90
10390;DHT22;5241;47.830;12.972;2023-04-03T05:34:08;3.00;99.90
10390;DHT22;5241;47.830;12.972;2023-04-03T05:36:33;3.00;99.90
10390;DHT22;5241;47.830;12.972;2023-04-03T05:38:59;3.00;99.90
10390;DHT22;5241;47.830;12.972;2023-04-03T05:41:24;3.00;99.90
10390;DHT22;5241;47.830;12.972;2023-04-03T05:43:50;3.00;99.90
10390;DHT22;5241;47.830;12.972;2023-04-03T05:46:18;3.00;99.90
10390;DHT22;5241;47.830;12.972;2023-04-03T05:48:44;3.00;99.90
10390;DHT22;5241;47.830;12.972;2023-04-03T05:51:23;3.00;99.90
10390;DHT22;5241;47.830;12.972;2023-04-03T05:53:54;3.00;99.90
10390;DHT22;5241;47.830;12.972;2023-04-03T05:56:20;3.10;99.90
10390;DHT22;5241;47.830;12.972;2023-04-03T05:58:46;3.10;99.90
10390;DHT22;5241;47.830;12.972;2023-04-03T06:01:11;3.10;99.90
10390;DHT22;5241;47.830;12.972;2023-04-03T06:03:37;3.10;99.90
10390;DHT22;5241;47.830;12.972;2023-04-03T06:06:05;3.10;99.90
10390;DHT22;5241;47.830;12.972;2023-04-03T06:08:31;3.20;99.90
10390;DHT22;5241;47.830;12.972;2023-04-03T06:10:56;3.20;99.90
10390;DHT22;5241;47.830;12.972;2023-04-03T06:13:22;3.10;99.90
10390;DHT22;5241;47.830;12.972;2023-04-03T06:15:47;3.10;99.90
10390;DHT22;5241;47.830;12.972;2023-04-03T06:18:13;3.20;99.90
10390;DHT22;5241;47.830;12.972;2023-04-03T06:20:39;3.20;99.90
10390;DHT22;5241;47.830;12.972;2023-04-03T06:23:05;3.20;99.90
10390;DHT22;5241;47.830;12.972;2023-04-03T06:25:30;3.30;99.90
10390;DHT22;5241;47.830;12.972;2023-04-03T06:27:57;3.30;99.90
10390;DHT22;5241;47.830;12.972;2023-04-03T06:30:22;3.30;99.90
10390;DHT22;5241;47.830;12.972;2023-04-03T06:32:48;3.30;99.90
10390;DHT22;5241;47.830;12.972;2023-04-03T06:35:13;3.30;99.90
10390;DHT22;5241;47.830;12.972;2023-04-03T06:37:39;3.30;99.90
10390;DHT22;5241;47.830;12.972;2023-04-03T06:40:05;3.40;99.90
10390;DHT22;5241;47.830;12.972;2023-04-03T06:42:31;3.40;99.90
10390;DHT22;5241;47.830;12.972;2023-04-03T06:44:57;3.50;99.90
10390;DHT22;5241;47.830;12.972;2023-04-03T06:47:22;3.50;99.90
10390;DHT22;5241;47.830;12.972;2023-04-03T06:49:48;3.60;99.90
10390;DHT22;5241;47.830;12.972;2023-04-03T06:52:13;3.60;99.90
10390;DHT22;5241;47.830;12.972;2023-04-03T06:54:40;3.60;99.90
10390;DHT22;5241;47.830;12.972;2023-04-03T06:57:06;3.70;99.90
10390;DHT22;5241;47.830;12.972;2023-04-03T06:59:32;3.80;99.90
10390;DHT22;5241;47.830;12.972;2023-04-03T07:01:58;3.80;99.90
10390;DHT22;5241;47.830;12.972;2023-04-03T07:04:25;3.80;99.90
10390;DHT22;5241;47.830;12.972;2023-04-03T07:06:50;3.80;99.90
10390;DHT22;5241;47.830;12.972;2023-04-03T07:09:17;3.90;99.90
10390;DHT22;5241;47.830;12.972;2023-04-03T07:11:43;4.00;99.90
10390;DHT22;5241;47.830;12.972;2023-04-03T07:14:09;3.90;99.90
10390;DHT22;5241;47.830;12.972;2023-04-03T07:16:35;3.90;99.90
10390;DHT22;5241;47.830;12.972;2023-04-03T07:19:01;3.90;99.90
10390;DHT22;5241;47.830;12.972;2023-04-03T07:21:27;3.80;99.90
10390;DHT22;5241;47.830;12.972;2023-04-03T07:23:53;3.90;99.90
10390;DHT22;5241;47.830;12.972;2023-04-03T07:26:19;3.90;99.90
10390;DHT22;5241;47.830;12.972;2023-04-03T07:28:46;4.00;99.90
10390;DHT22;5241;47.830;12.972;2023-04-03T07:31:14;3.90;99.90
10390;DHT22;5241;47.830;12.972;2023-04-03T07:33:41;4.00;99.90
10390;DHT22;5241;47.830;12.972;2023-04-03T07:36:07;4.10;99.90
10390;DHT22;5241;47.830;12.972;2023-04-03T07:38:34;4.20;99.90
10390;DHT22;5241;47.830;12.972;2023-04-03T07:41:01;4.20;99.90
10390;DHT22;5241;47.830;12.972;2023-04-03T07:43:26;4.30;99.90
10390;DHT22;5241;47.830;12.972;2023-04-03T07:45:52;4.40;99.90
10390;DHT22;5241;47.830;12.972;2023-04-03T07:48:20;4.40;99.90
10390;DHT22;5241;47.830;12.972;2023-04-03T07:50:46;4.50;99.90
10390;DHT22;5241;47.830;12.972;2023-04-03T07:53:12;4.50;99.90
10390;DHT22;5241;47.830;12.972;2023-04-03T07:55:37;4.70;99.90
10390;DHT22;5241;47.830;12.972;2023-04-03T07:58:12;4.90;99.90
10390;DHT22;5241;47.830;12.972;2023-04-03T08:00:40;5.00;99.90
10390;DHT22;5241;47.830;12.972;2023-04-03T08:03:06;5.10;99.90
10390;DHT22;5241;47.830;12.972;2023-04-03T08:05:37;5.30;99.90
10390;DHT22;5241;47.830;12.972;2023-04-03T08:08:04;5.20;99.90
10390;DHT22;5241;47.830;12.972;2023-04-03T08:10:31;5.10;99.90
10390;DHT22;5241;47.830;12.972;2023-04-03T08:12:56;5.30;99.90
10390;DHT22;5241;47.830;12.972;2023-04-03T08:15:22;5.40;99.90
10390;DHT22;5241;47.830;12.972;2023-04-03T08:17:47;5.30;99.90
10390;DHT22;5241;47.830;12.972;2023-04-03T08:20:13;5.50;99.90
10390;DHT22;5241;47.830;12.972;2023-04-03T08:22:38;5.50;99.90
10390;DHT22;5241;47.830;12.972;2023-04-03T08:25:04;5.60;99.90
10390;DHT22;5241;47.830;12.972;2023-04-03T08:27:30;5.70;99.90
10390;DHT22;5241;47.830;12.972;2023-04-03T08:29:56;5.60;99.90
10390;DHT22;5241;47.830;12.972;2023-04-03T08:32:22;5.90;99.90
10390;DHT22;5241;47.830;12.972;2023-04-03T08:34:48;6.00;99.90
10390;DHT22;5241;47.830;12.972;2023-04-03T08:37:14;5.90;99.90
10390;DHT22;5241;47.830;12.972;2023-04-03T08:39:41;6.10;99.90
10390;DHT22;5241;47.830;12.972;2023-04-03T08:45:01;6.50;99.90
10390;DHT22;5241;47.830;12.972;2023-04-03T08:47:38;6.60;99.90
10390;DHT22;5241;47.830;12.972;2023-04-03T08:50:12;6.80;99.90
10390;DHT22;5241;47.830;12.972;2023-04-03T08:52:48;7.00;99.90
10390;DHT22;5241;47.830;12.972;2023-04-03T08:55:25;7.10;99.90
10390;DHT22;5241;47.830;12.972;2023-04-03T08:58:16;6.90;99.90
10390;DHT22;5241;47.830;12.972;2023-04-03T09:01:05;6.80;99.90
10390;DHT22;5241;47.830;12.972;2023-04-03T09:03:33;7.10;99.90
10390;DHT22;5241;47.830;12.972;2023-04-03T09:06:25;7.00;99.90
10390;DHT22;5241;47.830;12.972;2023-04-03T09:17:36;6.80;99.90
10390;DHT22;5241;47.830;12.972;2023-04-03T09:20:59;6.90;99.90
10390;DHT22;5241;47.830;12.972;2023-04-03T09:23:13;6.80;99.90
10390;DHT22;5241;47.830;12.972;2023-04-03T09:25:41;6.90;99.90
10390;DHT22;5241;47.830;12.972;2023-04-03T09:28:07;7.00;99.90
10390;DHT22;5241;47.830;12.972;2023-04-03T09:30:36;7.50;99.90
10390;DHT22;5241;47.830;12.972;2023-04-03T09:33:03;8.00;99.90
10390;DHT22;5241;47.830;12.972;2023-04-03T09:35:35;7.70;99.90
10390;DHT22;5241;47.830;12.972;2023-04-03T09:38:15;7.90;99.90
10390;DHT22;5241;47.830;12.972;2023-04-03T09:40:50;7.80;99.90
10390;DHT22;5241;47.830;12.972;2023-04-03T09:45:49;7.40;99.90
10390;DHT22;5241;47.830;12.972;2023-04-03T09:48:16;7.10;99.90
10390;DHT22;5241;47.830;12.972;2023-04-03T09:50:58;6.80;99.90
10390;DHT22;5241;47.830;12.972;2023-04-03T09:56:25;7.00;99.90
10390;DHT22;5241;47.830;12.972;2023-04-03T10:01:29;6.90;99.90
10390;DHT22;5241;47.830;12.972;2023-04-03T10:04:12;6.70;99.90
10390;DHT22;5241;47.830;12.972;2023-04-03T10:06:47;6.70;99.90
10390;DHT22;5241;47.830;12.972;2023-04-03T10:09:28;6.80;99.90
10390;DHT22;5241;47.830;12.972;2023-04-03T10:12:11;6.80;99.90
10390;DHT22;5241;47.830;12.972;2023-04-03T10:14:59;6.80;99.90
10390;DHT22;5241;47.830;12.972;2023-04-03T10:22:48;6.90;99.90
10390;DHT22;5241;47.830;12.972;2023-04-03T10:25:22;6.80;99.90
10390;DHT22;5241;47.830;12.972;2023-04-03T10:28:25;6.90;99.90
10390;DHT22;5241;47.830;12.972;2023-04-03T10:31:03;6.30;99.90
10390;DHT22;5241;47.830;12.972;2023-04-03T10:38:51;5.10;99.90
10390;DHT22;5241;47.830;12.972;2023-04-03T10:49:36;4.00;99.90
10390;DHT22;5241;47.830;12.972;2023-04-03T10:52:17;3.80;99.90
10390;DHT22;5241;47.830;12.972;2023-04-03T10:54:56;3.50;99.90
10390;DHT22;5241;47.830;12.972;2023-04-03T10:57:28;3.40;99.90
10390;DHT22;5241;47.830;12.972;2023-04-03T11:00:01;3.40;99.90
10390;DHT22;5241;47.830;12.972;2023-04-03T11:02:33;3.30;99.90
10390;DHT22;5241;47.830;12.972;2023-04-03T11:05:18;3.40;99.90
10390;DHT22;5241;47.830;12.972;2023-04-03T11:07:49;3.50;99.90
10390;DHT22;5241;47.830;12.972;2023-04-03T11:10:40;3.60;99.90
10390;DHT22;5241;47.830;12.972;2023-04-03T11:13:43;3.60;99.90
10390;DHT22;5241;47.830;12.972;2023-04-03T11:16:17;3.60;99.90
10390;DHT22;5241;47.830;12.972;2023-04-03T11:18:47;3.70;99.90
10390;DHT22;5241;47.830;12.972;2023-04-03T11:21:20;3.90;99.90
10390;DHT22;5241;47.830;12.972;2023-04-03T11:23:47;4.20;99.90
10390;DHT22;5241;47.830;12.972;2023-04-03T11:26:15;4.30;99.90
10390;DHT22;5241;47.830;12.972;2023-04-03T11:28:42;4.30;99.90
10390;DHT22;5241;47.830;12.972;2023-04-03T11:33:56;4.40;99.90
10390;DHT22;5241;47.830;12.972;2023-04-03T11:36:26;4.50;99.90
10390;DHT22;5241;47.830;12.972;2023-04-03T11:39:00;4.70;99.90
10390;DHT22;5241;47.830;12.972;2023-04-03T11:41:29;5.00;99.90
10390;DHT22;5241;47.830;12.972;2023-04-03T11:44:03;5.30;99.90
10390;DHT22;5241;47.830;12.972;2023-04-03T11:46:52;5.60;99.90
10390;DHT22;5241;47.830;12.972;2023-04-03T11:49:50;5.70;99.90
10390;DHT22;5241;47.830;12.972;2023-04-03T12:05:52;7.20;99.90
10390;DHT22;5241;47.830;12.972;2023-04-03T12:14:01;7.30;99.90
10390;DHT22;5241;47.830;12.972;2023-04-03T12:16:43;7.50;99.90
10390;DHT22;5241;47.830;12.972;2023-04-03T12:19:32;6.90;99.90
10390;DHT22;5241;47.830;12.972;2023-04-03T12:24:32;6.60;99.90
10390;DHT22;5241;47.830;12.972;2023-04-03T12:27:24;6.50;99.90
10390;DHT22;5241;47.830;12.972;2023-04-03T12:29:58;6.70;99.90
10390;DHT22;5241;47.830;12.972;2023-04-03T12:35:29;6.70;99.90
10390;DHT22;5241;47.830;12.972;2023-04-03T12:41:13;6.30;99.90
10390;DHT22;5241;47.830;12.972;2023-04-03T12:46:23;6.20;99.90
10390;DHT22;5241;47.830;12.972;2023-04-03T12:48:50;6.40;99.90
10390;DHT22;5241;47.830;12.972;2023-04-03T12:54:40;6.50;99.90
10390;DHT22;5241;47.830;12.972;2023-04-03T12:59:42;6.70;99.90
10390;DHT22;5241;47.830;12.972;2023-04-03T13:04:46;6.10;99.90
10390;DHT22;5241;47.830;12.972;2023-04-03T13:07:28;6.60;99.90
10390;DHT22;5241;47.830;12.972;2023-04-03T13:12:25;7.50;99.90
10390;DHT22;5241;47.830;12.972;2023-04-03T13:14:56;7.40;99.90
10390;DHT22;5241;47.830;12.972;2023-04-03T13:17:23;7.40;99.90
10390;DHT22;5241;47.830;12.972;2023-04-03T13:19:50;7.70;99.90
10390;DHT22;5241;47.830;12.972;2023-04-03T13:22:33;7.90;99.90
10390;DHT22;5241;47.830;12.972;2023-04-03T13:25:06;8.00;99.90
10390;DHT22;5241;47.830;12.972;2023-04-03T13:27:39;7.50;99.90
10390;DHT22;5241;47.830;12.972;2023-04-03T13:30:32;7.20;99.90
10390;DHT22;5241;47.830;12.972;2023-04-03T13:33:01;7.10;99.90
10390;DHT22;5241;47.830;12.972;2023-04-03T13:35:39;7.30;99.90
10390;DHT22;5241;47.830;12.972;2023-04-03T13:40:58;7.40;99.90
10390;DHT22;5241;47.830;12.972;2023-04-03T13:43:28;7.60;99.90
10390;DHT22;5241;47.830;12.972;2023-04-03T13:46:21;7.50;99.90
10390;DHT22;5241;47.830;12.972;2023-04-03T13:48:50;7.50;99.90
10390;DHT22;5241;47.830;12.972;2023-04-03T13:51:17;7.60;99.90
10390;DHT22;5241;47.830;12.972;2023-04-03T13:56:24;7.30;99.90
10390;DHT22;5241;47.830;12.972;2023-04-03T14:01:22;6.90;99.90
10390;DHT22;5241;47.830;12.972;2023-04-03T14:03:55;6.80;99.90
10390;DHT22;5241;47.830;12.972;2023-04-03T14:06:22;6.60;99.90
10390;DHT22;5241;47.830;12.972;2023-04-03T14:08:47;6.50;99.90
10390;DHT22;5241;47.830;12.972;2023-04-03T14:11:16;6.20;99.90
10390;DHT22;5241;47.830;12.972;2023-04-03T14:13:44;6.00;99.90
10390;DHT22;5241;47.830;12.972;2023-04-03T14:16:20;5.90;99.90
10390;DHT22;5241;47.830;12.972;2023-04-03T14:18:47;5.60;99.90
10390;DHT22;5241;47.830;12.972;2023-04-03T14:21:14;5.50;99.90
10390;DHT22;5241;47.830;12.972;2023-04-03T14:23:40;5.50;99.90
10390;DHT22;5241;47.830;12.972;2023-04-03T14:26:14;5.40;99.90
10390;DHT22;5241;47.830;12.972;2023-04-03T14:28:42;5.40;99.90
10390;DHT22;5241;47.830;12.972;2023-04-03T14:31:10;5.60;99.90
10390;DHT22;5241;47.830;12.972;2023-04-03T14:33:36;5.50;99.90
10390;DHT22;5241;47.830;12.972;2023-04-03T14:36:44;5.60;99.90
10390;DHT22;5241;47.830;12.972;2023-04-03T14:39:03;5.60;99.90
10390;DHT22;5241;47.830;12.972;2023-04-03T14:41:29;5.60;99.90
10390;DHT22;5241;47.830;12.972;2023-04-03T14:43:55;5.60;99.90
10390;DHT22;5241;47.830;12.972;2023-04-03T14:46:31;5.60;99.90
10390;DHT22;5241;47.830;12.972;2023-04-03T14:48:57;5.70;99.90
10390;DHT22;5241;47.830;12.972;2023-04-03T14:51:23;5.80;99.90
10390;DHT22;5241;47.830;12.972;2023-04-03T14:53:49;5.70;99.90
10390;DHT22;5241;47.830;12.972;2023-04-03T14:56:20;5.50;99.90
10390;DHT22;5241;47.830;12.972;2023-04-03T14:58:54;5.40;99.90
10390;DHT22;5241;47.830;12.972;2023-04-03T15:01:20;5.30;99.90
10390;DHT22;5241;47.830;12.972;2023-04-03T15:03:46;5.20;99.90
10390;DHT22;5241;47.830;12.972;2023-04-03T15:06:12;5.20;99.90
10390;DHT22;5241;47.830;12.972;2023-04-03T15:08:38;5.10;99.90
10390;DHT22;5241;47.830;12.972;2023-04-03T15:11:06;5.10;99.90
10390;DHT22;5241;47.830;12.972;2023-04-03T15:13:32;5.10;99.90
10390;DHT22;5241;47.830;12.972;2023-04-03T15:15:58;5.10;99.90
10390;DHT22;5241;47.830;12.972;2023-04-03T15:18:26;5.10;99.90
10390;DHT22;5241;47.830;12.972;2023-04-03T15:20:52;5.10;99.90
10390;DHT22;5241;47.830;12.972;2023-04-03T15:23:18;5.10;99.90
10390;DHT22;5241;47.830;12.972;2023-04-03T15:25:48;5.10;99.90
10390;DHT22;5241;47.830;12.972;2023-04-03T15:28:26;5.20;99.90
10390;DHT22;5241;47.830;12.972;2023-04-03T15:30:53;5.30;99.90
10390;DHT22;5241;47.830;12.972;2023-04-03T15:33:19;5.30;99.90
10390;DHT22;5241;47.830;12.972;2023-04-03T15:35:44;5.30;99.90
10390;DHT22;5241;47.830;12.972;2023-04-03T15:38:10;5.30;99.90
10390;DHT22;5241;47.830;12.972;2023-04-03T15:40:36;5.40;99.90
10390;DHT22;5241;47.830;12.972;2023-04-03T15:43:01;5.60;99.90
10390;DHT22;5241;47.830;12.972;2023-04-03T15:45:31;5.50;99.90
10390;DHT22;5241;47.830;12.972;2023-04-03T15:47:57;5.40;99.90
10390;DHT22;5241;47.830;12.972;2023-04-03T15:50:23;5.50;99.90
10390;DHT22;5241;47.830;12.972;2023-04-03T15:52:50;5.60;99.90
10390;DHT22;5241;47.830;12.972;2023-04-03T15:55:23;5.80;99.90
10390;DHT22;5241;47.830;12.972;2023-04-03T15:57:49;5.70;99.90
10390;DHT22;5241;47.830;12.972;2023-04-03T16:00:16;5.80;99.90
10390;DHT22;5241;47.830;12.972;2023-04-03T16:02:43;5.70;99.90
10390;DHT22;5241;47.830;12.972;2023-04-03T16:05:10;5.60;99.90
10390;DHT22;5241;47.830;12.972;2023-04-03T16:07:39;5.50;99.90
10390;DHT22;5241;47.830;12.972;2023-04-03T16:10:07;5.50;99.90
10390;DHT22;5241;47.830;12.972;2023-04-03T16:12:33;5.40;99.90
10390;DHT22;5241;47.830;12.972;2023-04-03T16:14:58;5.30;99.90
10390;DHT22;5241;47.830;12.972;2023-04-03T16:17:24;5.20;99.90
10390;DHT22;5241;47.830;12.972;2023-04-03T16:19:51;5.10;99.90
10390;DHT22;5241;47.830;12.972;2023-04-03T16:22:17;4.90;99.90
10390;DHT22;5241;47.830;12.972;2023-04-03T16:24:42;5.00;99.90
10390;DHT22;5241;47.830;12.972;2023-04-03T16:27:08;4.90;99.90
10390;DHT22;5241;47.830;12.972;2023-04-03T16:29:34;4.90;99.90
10390;DHT22;5241;47.830;12.972;2023-04-03T16:31:59;5.00;99.90
10390;DHT22;5241;47.830;12.972;2023-04-03T16:34:25;5.00;99.90
10390;DHT22;5241;47.830;12.972;2023-04-03T16:36:52;5.10;99.90
10390;DHT22;5241;47.830;12.972;2023-04-03T16:39:18;5.10;99.90
10390;DHT22;5241;47.830;12.972;2023-04-03T16:41:43;5.00;99.90
10390;DHT22;5241;47.830;12.972;2023-04-03T16:44:10;5.00;99.90
10390;DHT22;5241;47.830;12.972;2023-04-03T16:46:36;5.00;99.90
10390;DHT22;5241;47.830;12.972;2023-04-03T16:49:02;4.90;99.90
10390;DHT22;5241;47.830;12.972;2023-04-03T16:51:28;4.80;99.90
10390;DHT22;5241;47.830;12.972;2023-04-03T16:53:54;4.80;99.90
10390;DHT22;5241;47.830;12.972;2023-04-03T16:56:20;4.70;99.90
10390;DHT22;5241;47.830;12.972;2023-04-03T16:58:45;4.70;99.90
10390;DHT22;5241;47.830;12.972;2023-04-03T17:01:13;4.60;99.90
10390;DHT22;5241;47.830;12.972;2023-04-03T17:03:39;4.40;99.90
10390;DHT22;5241;47.830;12.972;2023-04-03T17:06:05;4.30;99.90
10390;DHT22;5241;47.830;12.972;2023-04-03T17:08:30;4.20;99.90
10390;DHT22;5241;47.830;12.972;2023-04-03T17:10:56;4.20;99.90
10390;DHT22;5241;47.830;12.972;2023-04-03T17:13:22;4.20;99.90
10390;DHT22;5241;47.830;12.972;2023-04-03T17:15:47;4.10;99.90
10390;DHT22;5241;47.830;12.972;2023-04-03T17:18:13;4.00;99.90
10390;DHT22;5241;47.830;12.972;2023-04-03T17:20:39;3.90;99.90
10390;DHT22;5241;47.830;12.972;2023-04-03T17:23:05;3.80;99.90
10390;DHT22;5241;47.830;12.972;2023-04-03T17:25:31;3.80;99.90
10390;DHT22;5241;47.830;12.972;2023-04-03T17:27:56;3.80;99.90
10390;DHT22;5241;47.830;12.972;2023-04-03T17:30:22;3.70;99.90